首页
METAR-TAF:

METAR-TAF

机场 :

塔什干国际机场

塔什干, 乌兹别克斯坦

纬度: 41-16N, 经度: 069-16E, 海拔: 489米

当前天气观测

该预报发布于18分钟前的04:30 UTC
风速6节,风向南转南东,在东转东南之间变化
温度 19°C
湿度 28%
气压 1016 hPa
能見度: 7000

METAR: UTTT 250430Z 16006KT 120V190 7000 NSC 19/00 Q1016 R08R/CLRD70 NOSIG

时间: 09:48 (04:48 UTC)

预报

该预报发布于5小时和48分钟前的23:00 UTC
预报有效从25日的 00点(UTC)到 25日的 24点(UTC)
风速10节,风向
能見度: 7000

TAF: UTTT 242300Z 2500/2524 08010KT 7000 NSC

超过4000个机场的气象观测和天气预报(METAR&TAF报告)。

可查询的气象台以黄色和红色小点在地图上表示。

将鼠标移到小点上方,可查看气象台名称。

然后点击查看天气观测和预报。

如需切换地图:点击带黑十字的绿色按钮放大地图;点击带横线的绿色按钮缩小地图;或者点击绿色箭头查看邻近地区的地图。


METAR-TAF: